Alvord, Iowa
Current Conditions -  °F | °C
As of 12:34 AM on Friday 28 Nov 2014 (Local Time) from KLYV Reporting Station
Overcast Overcast  
Wind Chill:   Ceiling: 10000
Heat Index: 18°   Visibility: 10mi
Dew Point: 12°   Wind: 13mph
Humidity: 79%   Direction: 160°SSE
Pressure: 30"   Gusts: 18mph
Location:  43.34°N, 96.3°W
Report Text: KLYV 280634Z AUTO 16011G16KT 10SM BKN100 OVC120 M08/M11 A3000 RMK AO2
Loading
Personal Weather Stations






























Interactive Weather Map New forecast layout! Learn more

10-Day Weather Forecast

Advertisements
Track Severe Weather on mobile